createdAt,value
2023-07-25T00:04:26.282Z,72.33
2023-07-25T00:09:28.411Z,72.01
2023-07-25T00:14:30.579Z,72.07
2023-07-25T00:19:32.726Z,71.96
2023-07-25T00:24:34.849Z,72.24
2023-07-25T00:29:37.061Z,72.17
2023-07-25T00:34:39.198Z,72.23
2023-07-25T00:39:41.383Z,72.25
2023-07-25T00:44:43.470Z,71.88
2023-07-25T00:49:46.821Z,71.50
2023-07-25T00:54:51.828Z,71.59
2023-07-25T00:59:54.043Z,71.36
2023-07-25T01:04:56.484Z,71.50
2023-07-25T01:09:58.788Z,70.93
2023-07-25T01:15:00.997Z,71.15
2023-07-25T01:20:09.439Z,71.33
2023-07-25T01:25:11.995Z,71.58
2023-07-25T01:30:14.086Z,71.62
2023-07-25T01:35:16.229Z,71.60
2023-07-25T01:40:18.499Z,71.34
2023-07-25T01:45:21.729Z,71.22
2023-07-25T01:50:24.132Z,71.01
2023-07-25T01:55:26.305Z,72.04
2023-07-25T02:00:29.495Z,73.26
2023-07-25T02:05:31.655Z,74.30
2023-07-25T02:10:34.047Z,73.96
2023-07-25T02:15:37.640Z,74.17
2023-07-25T02:20:39.951Z,74.62
2023-07-25T02:25:42.970Z,75.79
2023-07-25T02:30:47.464Z,77.33
2023-07-25T02:35:49.714Z,78.17
2023-07-25T02:40:51.917Z,78.45
2023-07-25T02:45:54.291Z,78.49
2023-07-25T02:50:56.469Z,78.91
2023-07-25T02:55:58.555Z,79.00
2023-07-25T03:01:01.294Z,79.01
2023-07-25T03:06:03.576Z,79.19
2023-07-25T03:11:05.864Z,79.25
2023-07-25T03:16:08.526Z,78.64
2023-07-25T03:21:10.769Z,79.02
2023-07-25T03:26:12.987Z,79.05
2023-07-25T03:31:15.134Z,79.09
2023-07-25T03:36:17.242Z,78.65
2023-07-25T03:41:19.380Z,78.62
2023-07-25T03:46:21.614Z,78.51
2023-07-25T03:51:24.713Z,78.84
2023-07-25T03:56:26.913Z,78.33
2023-07-25T04:01:29.552Z,78.37
2023-07-25T04:06:32.070Z,78.32
2023-07-25T04:11:34.472Z,78.45
2023-07-25T04:16:36.793Z,77.90
2023-07-25T04:21:39.137Z,77.88
2023-07-25T04:26:41.335Z,76.63
2023-07-25T04:31:43.665Z,77.93
2023-07-25T04:36:45.928Z,77.97
2023-07-25T04:41:48.086Z,76.97
2023-07-25T04:46:50.307Z,75.62
2023-07-25T04:51:52.542Z,75.80
2023-07-25T04:56:54.797Z,75.90
2023-07-25T05:01:57.026Z,74.63
2023-07-25T05:06:59.363Z,75.25
2023-07-25T05:12:01.611Z,73.20
2023-07-25T05:17:03.993Z,73.41
2023-07-25T05:22:06.256Z,72.49
2023-07-25T05:27:08.487Z,71.95
2023-07-25T05:32:10.743Z,72.09
2023-07-25T05:37:12.885Z,71.75
2023-07-25T05:42:15.188Z,71.46
2023-07-25T05:47:17.300Z,70.39
2023-07-25T05:52:19.431Z,70.17
2023-07-25T05:57:21.728Z,68.59
2023-07-25T06:02:23.897Z,69.03
2023-07-25T06:07:26.019Z,68.72
2023-07-25T06:12:28.280Z,66.52
2023-07-25T06:17:30.856Z,66.67
2023-07-25T06:22:33.004Z,63.33
2023-07-25T06:27:35.401Z,61.06
2023-07-25T06:32:39.112Z,60.07
2023-07-25T06:37:41.255Z,55.92
2023-07-25T06:42:43.559Z,55.40
2023-07-25T06:47:48.193Z,52.68
2023-07-25T06:52:50.493Z,48.98
2023-07-25T06:57:52.740Z,50.10
2023-07-25T07:02:56.168Z,49.10
2023-07-25T07:07:59.626Z,49.06
2023-07-25T07:13:01.771Z,45.80
2023-07-25T07:18:04.042Z,42.74
2023-07-25T07:23:06.667Z,40.33
2023-07-25T07:28:08.869Z,38.90
2023-07-25T07:33:11.077Z,36.56
2023-07-25T07:38:13.563Z,34.75
2023-07-25T07:43:16.945Z,34.20
2023-07-25T07:48:19.106Z,31.78
2023-07-25T07:53:21.351Z,30.23
2023-07-25T07:58:23.591Z,30.25
2023-07-25T08:03:25.789Z,29.13
2023-07-25T08:08:27.896Z,28.46
2023-07-25T08:13:30.199Z,27.16
2023-07-25T08:18:32.444Z,25.86
2023-07-25T08:23:34.681Z,25.83
2023-07-25T08:28:37.012Z,23.26
2023-07-25T08:33:39.333Z,21.18
2023-07-25T08:38:43.014Z,20.38
2023-07-25T08:43:45.477Z,18.67
2023-07-25T08:48:49.866Z,17.08
2023-07-25T08:54:03.928Z,18.26
2023-07-25T08:59:06.764Z,16.04
2023-07-25T09:04:10.460Z,17.15
2023-07-25T09:09:12.877Z,17.30
2023-07-25T09:14:15.264Z,16.65
2023-07-25T09:19:17.783Z,17.04
2023-07-25T09:24:20.063Z,16.91
2023-07-25T09:29:28.081Z,17.38
2023-07-25T09:34:30.343Z,16.45
2023-07-25T09:39:34.992Z,17.52
2023-07-25T09:44:37.114Z,17.32
2023-07-25T09:49:39.272Z,19.01
2023-07-25T09:54:42.040Z,18.82
2023-07-25T09:59:44.947Z,19.00
2023-07-25T10:04:48.417Z,18.16
2023-07-25T10:09:51.923Z,18.88
2023-07-25T10:14:56.414Z,18.98
2023-07-25T10:19:58.582Z,17.91
2023-07-25T10:25:00.853Z,17.15
2023-07-25T10:30:04.112Z,17.41
2023-07-25T10:35:08.821Z,19.46
2023-07-25T10:40:18.025Z,20.13
2023-07-25T10:45:30.623Z,20.20
2023-07-25T10:50:53.243Z,19.94
2023-07-25T10:56:07.956Z,19.82
2023-07-25T11:01:36.211Z,19.96
2023-07-25T11:06:39.824Z,18.14
2023-07-25T11:11:46.594Z,18.05
2023-07-25T11:16:51.927Z,17.54
2023-07-25T11:21:54.245Z,17.04
2023-07-25T11:26:56.363Z,16.42
2023-07-25T11:32:02.906Z,16.95
2023-07-25T11:37:10.875Z,17.66
2023-07-25T11:42:13.084Z,19.74
2023-07-25T11:47:15.448Z,20.40
2023-07-25T11:52:18.293Z,19.85
2023-07-25T11:57:20.508Z,18.71
2023-07-25T12:02:25.893Z,18.76
2023-07-25T12:07:28.157Z,19.13
2023-07-25T12:12:30.453Z,19.40
2023-07-25T12:17:43.025Z,19.79
2023-07-25T12:22:48.886Z,19.32
2023-07-25T12:27:53.726Z,19.04
2023-07-25T12:32:56.118Z,18.75
2023-07-25T12:37:58.876Z,18.62
2023-07-25T12:43:01.058Z,18.98
2023-07-25T12:48:04.956Z,20.08
2023-07-25T12:53:07.781Z,19.47
2023-07-25T12:58:10.007Z,20.91
2023-07-25T13:03:13.762Z,22.32
2023-07-25T13:08:16.565Z,23.43
2023-07-25T13:13:18.692Z,24.20
2023-07-25T13:18:20.786Z,24.47
2023-07-25T13:23:22.973Z,23.67
2023-07-25T13:28:26.173Z,25.36
2023-07-25T13:33:28.997Z,27.26
2023-07-25T13:38:31.218Z,28.32
2023-07-25T13:43:33.392Z,30.14
2023-07-25T13:48:35.560Z,30.70
2023-07-25T13:53:37.648Z,31.33
2023-07-25T13:58:39.929Z,32.07
2023-07-25T14:03:42.184Z,33.32
2023-07-25T14:08:44.698Z,33.16
2023-07-25T14:13:47.202Z,32.84
2023-07-25T14:18:49.357Z,33.61
2023-07-25T14:23:51.630Z,33.45
2023-07-25T14:28:53.827Z,34.67
2023-07-25T14:33:57.200Z,35.53
2023-07-25T14:38:59.426Z,35.84
2023-07-25T14:44:01.591Z,36.19
2023-07-25T14:49:03.909Z,35.80
2023-07-25T14:54:06.041Z,35.87
2023-07-25T14:59:08.225Z,36.82
2023-07-25T15:04:10.546Z,37.41
2023-07-25T15:09:12.817Z,37.97
2023-07-25T15:14:15.028Z,37.60
2023-07-25T15:19:17.244Z,38.26
2023-07-25T15:24:19.540Z,38.52
2023-07-25T15:29:21.880Z,39.14
2023-07-25T15:34:24.540Z,39.54
2023-07-25T15:39:26.794Z,39.93
2023-07-25T15:44:29.367Z,39.99
2023-07-25T15:49:31.515Z,40.23
2023-07-25T15:54:33.799Z,40.61
2023-07-25T15:59:36.101Z,41.07
2023-07-25T16:04:38.475Z,41.98
2023-07-25T16:09:43.505Z,43.01
2023-07-25T16:14:46.761Z,44.57
2023-07-25T16:19:48.841Z,43.92
2023-07-25T16:24:51.094Z,43.88
2023-07-25T16:29:53.370Z,44.86
2023-07-25T16:34:55.657Z,45.45
2023-07-25T16:39:57.840Z,45.84
2023-07-25T16:45:01.418Z,46.20
2023-07-25T16:50:07.132Z,46.57
2023-07-25T16:55:11.044Z,47.09
2023-07-25T17:00:13.636Z,49.69
2023-07-25T17:05:15.834Z,48.89
2023-07-25T17:10:18.064Z,48.29
2023-07-25T17:15:20.384Z,48.62
2023-07-25T17:20:26.065Z,49.17
2023-07-25T17:25:28.350Z,49.80
2023-07-25T17:30:30.493Z,53.61
2023-07-25T17:35:38.104Z,55.16
2023-07-25T17:40:43.884Z,53.67
2023-07-25T17:45:46.248Z,53.48
2023-07-25T17:50:51.622Z,53.71
2023-07-25T17:55:55.921Z,53.86
2023-07-25T18:00:58.436Z,52.53
2023-07-25T18:06:00.628Z,53.07
2023-07-25T18:11:02.853Z,52.33
2023-07-25T18:16:05.218Z,52.58
2023-07-25T18:21:10.098Z,52.44
2023-07-25T18:26:12.495Z,52.66
2023-07-25T18:31:14.653Z,52.63
2023-07-25T18:36:16.907Z,52.76
2023-07-25T18:41:19.099Z,52.50
2023-07-25T18:46:21.261Z,52.40
2023-07-25T18:51:23.552Z,56.70
2023-07-25T18:56:25.717Z,62.16
2023-07-25T19:01:27.928Z,63.09
2023-07-25T19:06:32.102Z,62.85
2023-07-25T19:11:34.598Z,68.16
2023-07-25T19:16:37.175Z,68.25
2023-07-25T19:21:40.623Z,68.55
2023-07-25T19:26:42.818Z,68.91
2023-07-25T19:31:45.099Z,69.48
2023-07-25T19:36:47.354Z,70.97
2023-07-25T19:41:51.610Z,71.63
2023-07-25T19:46:56.128Z,72.45
2023-07-25T19:51:59.461Z,73.91
2023-07-25T19:57:02.625Z,75.45
2023-07-25T20:02:05.144Z,75.16
2023-07-25T20:07:07.670Z,75.27
2023-07-25T20:12:10.745Z,75.28
2023-07-25T20:17:12.985Z,74.86
2023-07-25T20:22:15.234Z,75.43
2023-07-25T20:27:18.282Z,74.54
2023-07-25T20:32:20.776Z,74.99
2023-07-25T20:37:23.101Z,74.85
2023-07-25T20:42:25.457Z,75.59
2023-07-25T20:47:27.819Z,75.32
2023-07-25T20:52:30.157Z,75.52
2023-07-25T20:57:32.409Z,75.50
2023-07-25T21:02:34.711Z,75.75
2023-07-25T21:07:38.369Z,76.11
2023-07-25T21:12:40.753Z,76.05
2023-07-25T21:17:43.106Z,76.11
2023-07-25T21:22:45.352Z,76.46
2023-07-25T21:27:47.619Z,75.61
2023-07-25T21:32:49.909Z,75.31
2023-07-25T21:37:52.476Z,75.20
2023-07-25T21:42:54.730Z,75.24
2023-07-25T21:47:56.957Z,75.54
2023-07-25T21:52:59.210Z,75.56
2023-07-25T21:58:01.483Z,75.61
2023-07-25T22:03:03.856Z,76.03
2023-07-25T22:08:06.069Z,76.08
2023-07-25T22:13:08.905Z,76.06
2023-07-25T22:18:11.028Z,75.97
2023-07-25T22:23:13.216Z,75.92
2023-07-25T22:28:15.460Z,75.89
2023-07-25T22:33:17.647Z,75.74
2023-07-25T22:38:19.795Z,75.70
2023-07-25T22:43:22.032Z,75.77
2023-07-25T22:48:25.235Z,75.81
2023-07-25T22:53:27.301Z,75.44
2023-07-25T22:58:30.099Z,75.54
2023-07-25T23:03:36.131Z,75.50
2023-07-25T23:08:38.419Z,75.50
2023-07-25T23:13:40.573Z,75.20
2023-07-25T23:18:42.842Z,75.38
2023-07-25T23:23:45.019Z,75.32
2023-07-25T23:28:47.202Z,75.20
2023-07-25T23:33:49.407Z,75.29
2023-07-25T23:38:51.536Z,75.23
2023-07-25T23:43:53.589Z,75.08
2023-07-25T23:48:55.668Z,75.00
2023-07-25T23:53:58.286Z,75.22
2023-07-25T23:59:01.095Z,74.97
